CheckWX is a tool to help pilots better visualize weather data.  It is not intended as a substitute for an official pre-flight weather briefing.

20:14:06 UTC

KOGB METAR
Orangeburg Municipal Airport
Orangeburg, South Carolina, USA
Current

21 mins ago

KOGB 261953Z AUTO 05006KT 10SM CLR 30/17 A3013 RMK AO2 SLP199 T03000167
Observed
Jun-26 @ 19:53 UTC
Wind
  • 050° at 6 KTS
Visibility
10 SM
Flight Rules
VFR
Cloud Levels
  • Clear skies
Temperature
30°C / 86°F
Dewpoint
17°C / 63°F
Heat Index
31°C / 87°F
Humidity
46%
Altimeter
30.13" Hg
Pressure
1020.32 hPa
Previous

1 hour ago

KOGB 261853Z AUTO 03006KT 10SM CLR 30/15 A3013 RMK AO2 SLP201 T03000150
Observed
Jun-26 @ 18:53 UTC
Wind
  • 030° at 6 KTS
Visibility
10 SM
Flight Rules
VFR
Cloud Levels
  • Clear skies
Temperature
30°C / 86°F
Dewpoint
15°C / 59°F
Heat Index
29°C / 85°F
Humidity
40%
Altimeter
30.13" Hg
Pressure
1020.32 hPa
Previous

2 hours ago

KOGB 261753Z AUTO 35008KT 10SM CLR 30/17 A3014 RMK AO2 SLP203 T03000167 10311 20250 58004
Observed
Jun-26 @ 17:53 UTC
Wind
  • 350° at 8 KTS
Visibility
10 SM
Flight Rules
VFR
Cloud Levels
  • Clear skies
Temperature
30°C / 86°F
Dewpoint
17°C / 63°F
Heat Index
31°C / 87°F
Humidity
46%
Altimeter
30.14" Hg
Pressure
1020.62 hPa